OEYN Airport Information

Runway Information
Runway 10 Length 10532 ft width 148 ft
Elevation 18 ft Threshold 0 ft Heading 103
Runway 28 Length 10532 ft Width 148 ft
Elevation 26 ft Threshold 0 ft Heading 283
Airport Frequencies
Type AFIS Name INFO Frequency 118.1 MHZ
Type CTAF Name CTAF Frequency 122.8 MHZ
Type MISC Name FIRE RESCU Frequency 133.5 MHZ
Airport Navaids
Airport Weather Information & NOTAM
ADDS - METARS form results

(1006 UTC 22 February 2019)
Data provider http://aviationweather.gov/metar/data/
 
Forecast for: OEYN (YENBO , SA)
Text: TAF OEYN 220500Z 2206/2215 29015KT 9999 SCT040
Forecast period: 0600 to 1500 UTC 22 February 2019
Forecast type: FROM: standard forecast or significant change
Winds: from the WNW (290 degrees) at 17 MPH (15 knots; 7.7 m/s)
Visibility: 6 or more miles 10+ km)
Ceiling: at least 12,000 feet AGL
Clouds: scattered clouds at 4000 feet AGL
Weather: no significant weather forecast for this period